createdAt,value
2022-11-23T00:00:50.503Z,99126.60
2022-11-23T00:03:20.342Z,99124.23
2022-11-23T00:05:50.202Z,99130.37
2022-11-23T00:08:20.009Z,99122.78
2022-11-23T00:10:49.826Z,99115.05
2022-11-23T00:13:19.353Z,99112.44
2022-11-23T00:15:49.247Z,99114.67
2022-11-23T00:18:18.910Z,99117.29
2022-11-23T00:20:48.724Z,99118.20
2022-11-23T00:23:18.547Z,99125.37
2022-11-23T00:25:48.356Z,99126.54
2022-11-23T00:28:18.205Z,99119.17
2022-11-23T00:30:51.407Z,99122.45
2022-11-23T00:33:21.059Z,99121.76
2022-11-23T00:36:05.843Z,99126.38
2022-11-23T00:38:35.929Z,99126.38
2022-11-23T00:41:12.896Z,99130.20
2022-11-23T00:43:43.011Z,99123.70
2022-11-23T00:46:18.883Z,99125.14
2022-11-23T00:48:51.299Z,99124.23
2022-11-23T00:51:23.386Z,99130.27
2022-11-23T00:53:53.454Z,99137.85
2022-11-23T00:56:24.483Z,99139.16
2022-11-23T00:58:56.530Z,99134.86
2022-11-23T01:01:30.906Z,99138.09
2022-11-23T01:04:03.638Z,99139.62
2022-11-23T01:06:36.532Z,99141.89
2022-11-23T01:09:09.540Z,99147.40
2022-11-23T01:11:39.655Z,99139.44
2022-11-23T01:14:09.473Z,99145.95
2022-11-23T01:16:41.013Z,99139.29
2022-11-23T01:19:15.099Z,99147.78
2022-11-23T01:21:45.268Z,99147.78
2022-11-23T01:24:20.813Z,99147.63
2022-11-23T01:26:55.168Z,99145.80
2022-11-23T01:29:25.916Z,99157.43
2022-11-23T01:31:55.971Z,99158.42
2022-11-23T01:34:25.775Z,99153.50
2022-11-23T01:36:55.589Z,99156.42
2022-11-23T01:39:25.402Z,99153.95
2022-11-23T01:41:55.510Z,99151.73
2022-11-23T01:44:34.420Z,99157.17
2022-11-23T01:47:09.130Z,99159.92
2022-11-23T01:49:42.057Z,99151.97
2022-11-23T01:52:15.009Z,99147.75
2022-11-23T01:54:54.291Z,99151.58
2022-11-23T01:57:35.726Z,99151.66
2022-11-23T02:00:07.068Z,99152.88
2022-11-23T02:02:44.965Z,99149.05
2022-11-23T02:05:16.818Z,99146.44
2022-11-23T02:07:50.417Z,99152.61
2022-11-23T02:10:20.734Z,99152.61
2022-11-23T02:12:50.897Z,99156.13
2022-11-23T02:15:20.741Z,99159.31
2022-11-23T02:17:51.201Z,99163.75
2022-11-23T02:20:21.343Z,99161.91
2022-11-23T02:22:57.140Z,99161.91
2022-11-23T02:25:38.750Z,99164.67
2022-11-23T02:28:08.907Z,99165.82
2022-11-23T02:30:42.228Z,99165.82
2022-11-23T02:33:13.166Z,99164.13
2022-11-23T02:35:49.272Z,99164.02
2022-11-23T02:38:19.849Z,99164.41
2022-11-23T02:40:48.618Z,99161.77
2022-11-23T02:43:19.388Z,99161.45
2022-11-23T02:45:57.893Z,99160.69
2022-11-23T02:48:28.096Z,99156.81
2022-11-23T02:50:57.882Z,99161.98
2022-11-23T02:53:27.767Z,99159.77
2022-11-23T02:55:57.656Z,99159.08
2022-11-23T02:58:27.468Z,99165.05
2022-11-23T03:00:57.635Z,99165.05
2022-11-23T03:03:27.457Z,99169.30
2022-11-23T03:05:58.170Z,99165.97
2022-11-23T03:08:29.161Z,99160.39
2022-11-23T03:11:02.986Z,99158.70
2022-11-23T03:13:32.890Z,99159.08
2022-11-23T03:16:02.948Z,99157.89
2022-11-23T03:18:32.937Z,99159.27
2022-11-23T03:21:09.113Z,99150.39
2022-11-23T03:23:40.137Z,99157.50
2022-11-23T03:26:13.089Z,99151.99
2022-11-23T03:28:44.647Z,99156.99
2022-11-23T03:31:15.149Z,99154.00
2022-11-23T03:33:45.120Z,99154.97
2022-11-23T03:36:15.893Z,99151.45
2022-11-23T03:38:47.502Z,99153.29
2022-11-23T03:41:27.851Z,99153.99
2022-11-23T03:43:58.168Z,99157.06
2022-11-23T03:46:27.991Z,99156.15
2022-11-23T03:48:57.969Z,99150.03
2022-11-23T03:51:28.751Z,99152.55
2022-11-23T03:53:58.588Z,99153.08
2022-11-23T03:56:30.072Z,99156.45
2022-11-23T03:58:59.899Z,99157.45
2022-11-23T04:01:30.748Z,99159.52
2022-11-23T04:04:02.344Z,99157.12
2022-11-23T04:06:34.370Z,99149.77
2022-11-23T04:09:06.688Z,99154.44
2022-11-23T04:11:38.224Z,99150.00
2022-11-23T04:14:09.812Z,99150.00
2022-11-23T04:16:40.002Z,99149.52
2022-11-23T04:19:09.941Z,99143.88
2022-11-23T04:21:39.746Z,99146.02
2022-11-23T04:24:10.245Z,99151.92
2022-11-23T04:26:40.591Z,99144.27
2022-11-23T04:29:11.395Z,99144.88
2022-11-23T04:31:42.933Z,99139.06
2022-11-23T04:34:17.248Z,99137.53
2022-11-23T04:36:47.530Z,99135.38
2022-11-23T04:39:17.332Z,99133.85
2022-11-23T04:42:06.363Z,99140.94
2022-11-23T04:44:36.346Z,99137.88
2022-11-23T04:47:07.278Z,99139.63
2022-11-23T04:49:38.814Z,99139.56
2022-11-23T04:52:16.603Z,99148.28
2022-11-23T04:54:50.103Z,99149.97
2022-11-23T04:57:20.115Z,99144.14
2022-11-23T04:59:50.691Z,99148.32
2022-11-23T05:02:20.226Z,99147.63
2022-11-23T05:04:55.046Z,99151.67
2022-11-23T05:07:26.633Z,99155.65
2022-11-23T05:09:58.195Z,99157.88
2022-11-23T05:12:28.197Z,99160.64
2022-11-23T05:14:58.050Z,99159.56
2022-11-23T05:17:28.550Z,99159.64
2022-11-23T05:19:58.539Z,99161.40
2022-11-23T05:22:28.938Z,99163.38
2022-11-23T05:24:58.847Z,99158.17
2022-11-23T05:27:28.745Z,99160.67
2022-11-23T05:29:58.902Z,99166.10
2022-11-23T05:32:28.703Z,99166.34
2022-11-23T05:34:59.340Z,99166.34
2022-11-23T05:37:29.284Z,99173.45
2022-11-23T05:40:00.603Z,99172.77
2022-11-23T05:42:31.880Z,99170.94
2022-11-23T05:45:04.487Z,99163.20
2022-11-23T05:47:37.728Z,99171.70
2022-11-23T05:50:08.620Z,99168.25
2022-11-23T05:52:39.370Z,99169.94
2022-11-23T05:55:09.204Z,99176.59
2022-11-23T05:57:39.601Z,99175.06
2022-11-23T06:00:13.033Z,99170.37
2022-11-23T06:02:44.668Z,99167.17
2022-11-23T06:05:16.000Z,99169.17
2022-11-23T06:07:47.866Z,99170.01
2022-11-23T06:10:19.495Z,99170.01
2022-11-23T06:12:51.119Z,99171.23
2022-11-23T06:15:21.267Z,99171.45
2022-11-23T06:17:51.887Z,99169.70
2022-11-23T06:20:22.914Z,99172.38
2022-11-23T06:22:58.054Z,99169.31
2022-11-23T06:25:27.944Z,99180.73
2022-11-23T06:28:01.642Z,99177.75
2022-11-23T06:30:33.333Z,99183.78
2022-11-23T06:33:06.666Z,99189.20
2022-11-23T06:35:38.570Z,99189.20
2022-11-23T06:38:08.474Z,99196.10
2022-11-23T06:40:38.294Z,99191.35
2022-11-23T06:43:09.178Z,99202.46
2022-11-23T06:45:41.070Z,99204.07
2022-11-23T06:48:12.961Z,99206.83
2022-11-23T06:50:44.493Z,99205.33
2022-11-23T06:53:14.971Z,99215.28
2022-11-23T06:55:46.490Z,99221.64
2022-11-23T06:58:17.798Z,99224.41
2022-11-23T07:00:47.774Z,99220.22
2022-11-23T07:03:22.933Z,99227.95
2022-11-23T07:05:54.663Z,99236.70
2022-11-23T07:08:26.512Z,99230.94
2022-11-23T07:10:59.450Z,99232.39
2022-11-23T07:13:29.742Z,99241.44
2022-11-23T07:16:00.766Z,99243.04
2022-11-23T07:18:30.511Z,99245.95
2022-11-23T07:21:02.001Z,99238.27
2022-11-23T07:23:31.813Z,99240.77
2022-11-23T07:26:03.882Z,99239.11
2022-11-23T07:28:33.735Z,99241.06
2022-11-23T07:31:03.629Z,99238.84
2022-11-23T07:33:33.468Z,99242.51
2022-11-23T07:36:04.618Z,99242.57
2022-11-23T07:38:34.712Z,99249.39
2022-11-23T07:41:13.098Z,99258.67
2022-11-23T07:43:44.632Z,99257.52
2022-11-23T07:46:15.946Z,99257.05
2022-11-23T07:48:46.732Z,99258.73
2022-11-23T07:51:20.821Z,99262.45
2022-11-23T07:53:50.447Z,99256.77
2022-11-23T07:56:20.691Z,99255.53
2022-11-23T07:58:50.667Z,99252.45
2022-11-23T08:01:20.881Z,99256.58
2022-11-23T08:03:50.938Z,99263.56
2022-11-23T08:06:20.567Z,99271.69
2022-11-23T08:08:50.833Z,99267.61
2022-11-23T08:11:20.810Z,99276.15
2022-11-23T08:13:50.624Z,99277.70
2022-11-23T08:16:20.163Z,99287.97
2022-11-23T08:18:50.869Z,99288.02
2022-11-23T08:21:20.395Z,99290.17
2022-11-23T08:23:50.217Z,99292.13
2022-11-23T08:26:19.735Z,99286.20
2022-11-23T08:28:49.605Z,99278.75
2022-11-23T08:31:19.302Z,99281.82
2022-11-23T08:33:49.088Z,99272.73
2022-11-23T08:36:18.927Z,99272.73
2022-11-23T08:38:50.473Z,99269.08
2022-11-23T08:41:21.267Z,99272.19
2022-11-23T08:43:53.278Z,99264.97
2022-11-23T08:46:22.989Z,99271.66
2022-11-23T08:48:52.839Z,99266.06
2022-11-23T08:51:23.186Z,99262.91
2022-11-23T08:53:53.492Z,99267.24
2022-11-23T08:56:23.022Z,99263.66
2022-11-23T08:58:52.905Z,99265.09
2022-11-23T09:01:22.962Z,99263.53
2022-11-23T09:03:54.280Z,99258.33
2022-11-23T09:06:25.477Z,99265.44
2022-11-23T09:08:55.947Z,99265.27
2022-11-23T09:11:26.420Z,99259.20
2022-11-23T09:13:56.096Z,99254.77
2022-11-23T09:16:28.456Z,99255.03
2022-11-23T09:18:58.245Z,99250.22
2022-11-23T09:21:29.625Z,99243.31
2022-11-23T09:23:59.609Z,99240.98
2022-11-23T09:26:30.666Z,99240.92
2022-11-23T09:29:00.784Z,99236.83
2022-11-23T09:31:30.600Z,99239.36
2022-11-23T09:34:00.812Z,99231.43
2022-11-23T09:36:31.102Z,99235.34
2022-11-23T09:39:01.182Z,99227.02
2022-11-23T09:41:49.090Z,99225.83
2022-11-23T09:44:27.421Z,99227.35
2022-11-23T09:47:00.364Z,99229.12
2022-11-23T09:49:36.341Z,99233.23
2022-11-23T09:52:12.683Z,99225.63
2022-11-23T09:54:45.258Z,99225.63
2022-11-23T09:57:18.133Z,99227.12
2022-11-23T09:59:50.993Z,99228.25
2022-11-23T10:02:29.474Z,99221.92
2022-11-23T10:05:02.333Z,99216.05
2022-11-23T10:08:08.225Z,99201.77
2022-11-23T10:10:41.110Z,99203.07
2022-11-23T10:13:19.539Z,99201.95
2022-11-23T10:15:55.847Z,99202.52
2022-11-23T10:18:37.277Z,99198.20
2022-11-23T10:21:30.284Z,99194.02
2022-11-23T10:24:20.093Z,99194.02
2022-11-23T10:26:51.388Z,99193.46
2022-11-23T10:29:27.607Z,99191.69
2022-11-23T10:31:59.239Z,99195.97
2022-11-23T10:34:35.156Z,99189.16
2022-11-23T10:37:16.442Z,99189.91
2022-11-23T10:39:46.288Z,99195.59
2022-11-23T10:42:31.044Z,99190.93
2022-11-23T10:45:05.684Z,99192.24
2022-11-23T10:47:41.259Z,99189.89
2022-11-23T10:50:19.819Z,99187.86
2022-11-23T10:52:57.868Z,99186.65
2022-11-23T10:55:31.365Z,99196.23
2022-11-23T10:58:01.732Z,99189.52
2022-11-23T11:00:31.819Z,99195.80
2022-11-23T11:03:03.413Z,99190.61
2022-11-23T11:08:22.768Z,99169.06
2022-11-23T11:11:08.440Z,99185.50
2022-11-23T11:13:47.068Z,99184.48
2022-11-23T11:16:34.874Z,99188.64
2022-11-23T11:19:30.157Z,99181.16
2022-11-23T11:22:02.288Z,99189.99
2022-11-23T11:24:40.708Z,99193.06
2022-11-23T11:27:19.177Z,99190.80
2022-11-23T11:29:54.232Z,99204.30
2022-11-23T11:32:29.297Z,99204.30
2022-11-23T11:35:05.188Z,99195.13
2022-11-23T11:37:46.906Z,99195.41
2022-11-23T11:40:22.804Z,99195.31
2022-11-23T11:43:07.570Z,99192.27
2022-11-23T11:45:59.652Z,99189.98
2022-11-23T11:48:23.065Z,99201.20
2022-11-23T11:51:07.649Z,99198.39
2022-11-23T11:53:56.653Z,99193.48
2022-11-23T11:56:41.610Z,99193.48
2022-11-23T11:59:14.549Z,99194.84
2022-11-23T12:01:50.156Z,99182.70
2022-11-23T12:04:22.731Z,99179.89
2022-11-23T12:06:58.369Z,99182.34
2022-11-23T12:09:31.846Z,99186.31
2022-11-23T12:12:02.610Z,99186.31
2022-11-23T12:14:33.053Z,99180.26
2022-11-23T12:17:35.010Z,99174.84
2022-11-23T12:20:39.625Z,99178.58
2022-11-23T12:23:34.856Z,99184.33
2022-11-23T12:26:18.785Z,99184.63
2022-11-23T12:28:51.649Z,99190.03
2022-11-23T12:31:37.933Z,99182.68
2022-11-23T12:34:26.568Z,99185.30
2022-11-23T12:37:04.970Z,99190.91
2022-11-23T12:39:54.534Z,99184.29
2022-11-23T12:42:36.383Z,99180.87
2022-11-23T12:45:10.027Z,99179.39
2022-11-23T12:47:51.503Z,99184.16
2022-11-23T12:50:29.898Z,99185.53
2022-11-23T12:53:14.656Z,99190.20
2022-11-23T12:55:59.652Z,99188.48
2022-11-23T12:58:32.035Z,99191.41
2022-11-23T13:01:18.124Z,99192.30
2022-11-23T13:04:00.398Z,99179.14
2022-11-23T13:07:20.786Z,99180.67
2022-11-23T13:09:29.569Z,99177.64
2022-11-23T13:12:18.974Z,99182.72
2022-11-23T13:14:57.599Z,99184.57
2022-11-23T13:17:36.403Z,99197.21
2022-11-23T13:20:21.629Z,99197.45
2022-11-23T13:22:53.232Z,99202.05
2022-11-23T13:25:29.163Z,99199.83
2022-11-23T13:28:30.375Z,99202.13
2022-11-23T13:31:31.271Z,99204.23
2022-11-23T13:34:03.954Z,99204.23
2022-11-23T13:37:10.510Z,99212.27
2022-11-23T13:39:29.517Z,99212.27
2022-11-23T13:42:02.228Z,99213.85
2022-11-23T13:44:33.588Z,99213.20
2022-11-23T13:47:14.020Z,99215.26
2022-11-23T13:49:53.991Z,99210.69
2022-11-23T13:52:27.313Z,99209.47
2022-11-23T13:55:09.829Z,99209.47
2022-11-23T13:57:44.030Z,99219.52
2022-11-23T14:00:35.986Z,99214.98
2022-11-23T14:03:43.182Z,99213.77
2022-11-23T14:06:24.557Z,99223.49
2022-11-23T14:09:06.214Z,99223.49
2022-11-23T14:11:51.652Z,99225.31
2022-11-23T14:14:24.225Z,99223.72
2022-11-23T14:17:09.544Z,99224.84
2022-11-23T14:20:00.469Z,99228.78
2022-11-23T14:22:39.162Z,99225.41
2022-11-23T14:25:14.833Z,99227.94
2022-11-23T14:27:56.752Z,99235.17
2022-11-23T14:30:47.744Z,99235.17
2022-11-23T14:33:32.087Z,99239.09
2022-11-23T14:36:13.841Z,99241.36
2022-11-23T14:39:08.546Z,99234.16
2022-11-23T14:41:40.720Z,99239.48
2022-11-23T14:44:13.512Z,99237.25
2022-11-23T14:47:07.403Z,99241.82
2022-11-23T14:49:38.635Z,99245.91
2022-11-23T14:52:10.722Z,99245.73
2022-11-23T14:54:41.504Z,99245.73
2022-11-23T14:57:16.346Z,99246.84
2022-11-23T14:59:49.214Z,99240.24
2022-11-23T15:02:36.793Z,99243.58
2022-11-23T15:05:15.517Z,99241.43
2022-11-23T15:08:05.439Z,99240.68
2022-11-23T15:10:59.177Z,99246.20
2022-11-23T15:13:33.191Z,99245.34
2022-11-23T15:16:05.351Z,99252.98
2022-11-23T15:18:41.271Z,99253.16
2022-11-23T15:21:23.903Z,99248.78
2022-11-23T15:23:57.300Z,99251.11
2022-11-23T15:26:48.070Z,99245.80
2022-11-23T15:29:08.653Z,99245.80
2022-11-23T15:31:43.994Z,99242.22
2022-11-23T15:34:18.690Z,99238.77
2022-11-23T15:36:53.554Z,99241.59
2022-11-23T15:39:25.932Z,99243.36
2022-11-23T15:41:56.343Z,99242.12
2022-11-23T15:44:32.743Z,99242.12
2022-11-23T15:47:07.775Z,99238.66
2022-11-23T15:49:41.845Z,99235.84
2022-11-23T15:52:17.201Z,99235.84
2022-11-23T15:54:47.559Z,99237.33
2022-11-23T15:57:23.627Z,99233.03
2022-11-23T15:59:59.382Z,99232.66
2022-11-23T16:02:32.145Z,99231.27
2022-11-23T16:05:12.663Z,99230.34
2022-11-23T16:07:59.646Z,99231.99
2022-11-23T16:10:31.926Z,99239.53
2022-11-23T16:13:05.758Z,99235.79
2022-11-23T16:15:40.577Z,99235.96
2022-11-23T16:18:22.790Z,99241.27
2022-11-23T16:20:58.557Z,99240.51
2022-11-23T16:23:31.390Z,99243.66
2022-11-23T16:26:04.273Z,99238.61
2022-11-23T16:28:36.656Z,99244.08
2022-11-23T16:31:09.857Z,99243.78
2022-11-23T16:33:39.717Z,99247.41
2022-11-23T16:36:09.422Z,99241.59
2022-11-23T16:38:40.439Z,99248.58
2022-11-23T16:41:10.086Z,99242.44
2022-11-23T16:43:39.922Z,99248.75
2022-11-23T16:46:11.212Z,99252.72
2022-11-23T16:48:43.158Z,99249.14
2022-11-23T16:51:15.752Z,99245.61
2022-11-23T16:54:12.447Z,99245.17
2022-11-23T16:56:24.296Z,99247.02
2022-11-23T16:58:55.306Z,99243.27
2022-11-23T17:01:27.436Z,99245.31
2022-11-23T17:03:57.629Z,99237.66
2022-11-23T17:06:27.889Z,99239.28
2022-11-23T17:09:06.152Z,99238.22
2022-11-23T17:11:30.369Z,99234.82
2022-11-23T17:14:00.347Z,99239.29
2022-11-23T17:16:31.744Z,99240.98
2022-11-23T17:19:01.554Z,99237.54
2022-11-23T17:21:31.377Z,99240.50
2022-11-23T17:24:01.551Z,99237.05
2022-11-23T17:26:39.939Z,99244.33
2022-11-23T17:29:15.210Z,99246.81
2022-11-23T17:31:45.692Z,99250.80
2022-11-23T17:34:16.442Z,99253.70
2022-11-23T17:36:48.465Z,99253.70
2022-11-23T17:39:28.459Z,99253.58
2022-11-23T17:42:04.362Z,99250.67
2022-11-23T17:44:29.773Z,99252.48
2022-11-23T17:47:00.919Z,99249.03
2022-11-23T17:49:31.365Z,99256.00
2022-11-23T17:52:02.137Z,99256.00
2022-11-23T17:54:31.946Z,99252.74
2022-11-23T17:57:01.765Z,99256.95
2022-11-23T17:59:31.864Z,99267.13
2022-11-23T18:02:01.981Z,99263.97
2022-11-23T18:04:31.853Z,99274.99
2022-11-23T18:07:01.759Z,99276.55
2022-11-23T18:09:32.160Z,99271.66
2022-11-23T18:12:02.563Z,99273.10
2022-11-23T18:14:36.798Z,99278.34
2022-11-23T18:17:08.681Z,99286.60
2022-11-23T18:19:38.496Z,99285.55
2022-11-23T18:22:08.914Z,99284.00
2022-11-23T18:24:38.843Z,99287.34
2022-11-23T18:27:08.742Z,99288.33
2022-11-23T18:29:40.300Z,99294.72
2022-11-23T18:32:10.693Z,99292.25
2022-11-23T18:34:40.225Z,99296.81
2022-11-23T18:37:11.355Z,99292.38
2022-11-23T18:39:41.560Z,99295.73
2022-11-23T18:42:11.643Z,99297.88
2022-11-23T18:44:41.793Z,99297.27
2022-11-23T18:47:11.392Z,99293.05
2022-11-23T18:49:43.814Z,99289.08
2022-11-23T18:52:14.050Z,99295.52
2022-11-23T18:54:44.247Z,99290.39
2022-11-23T18:57:15.433Z,99297.60
2022-11-23T19:00:01.826Z,99302.80
2022-11-23T19:02:17.090Z,99303.97
2022-11-23T19:04:46.899Z,99303.97
2022-11-23T19:07:25.095Z,99303.58
2022-11-23T19:09:50.893Z,99301.51
2022-11-23T19:12:20.647Z,99300.08
2022-11-23T19:14:51.417Z,99303.12
2022-11-23T19:17:21.340Z,99307.87
2022-11-23T19:19:51.164Z,99307.87
2022-11-23T19:22:20.752Z,99306.89
2022-11-23T19:24:50.747Z,99311.64
2022-11-23T19:27:20.618Z,99315.34
2022-11-23T19:29:50.735Z,99321.74
2022-11-23T19:32:20.571Z,99322.33
2022-11-23T19:34:51.237Z,99328.05
2022-11-23T19:37:20.774Z,99329.21
2022-11-23T19:39:51.070Z,99321.16
2022-11-23T19:42:21.235Z,99321.80
2022-11-23T19:44:51.044Z,99318.75
2022-11-23T19:47:22.948Z,99314.08
2022-11-23T19:49:51.455Z,99315.37
2022-11-23T19:52:21.169Z,99328.84
2022-11-23T19:54:51.893Z,99326.52
2022-11-23T19:57:21.605Z,99324.53
2022-11-23T19:59:51.425Z,99327.12
2022-11-23T20:02:26.455Z,99326.73
2022-11-23T20:04:57.543Z,99320.92
2022-11-23T20:07:28.566Z,99324.86
2022-11-23T20:09:58.493Z,99330.63
2022-11-23T20:12:28.358Z,99335.27
2022-11-23T20:14:58.281Z,99340.28
2022-11-23T20:17:28.024Z,99345.98
2022-11-23T20:19:57.830Z,99354.41
2022-11-23T20:22:27.687Z,99354.63
2022-11-23T20:24:59.446Z,99352.61
2022-11-23T20:27:29.067Z,99355.98
2022-11-23T20:29:58.917Z,99352.47
2022-11-23T20:32:28.759Z,99353.19
2022-11-23T20:34:58.585Z,99354.03
2022-11-23T20:37:28.407Z,99359.23
2022-11-23T20:39:58.240Z,99357.14
2022-11-23T20:42:31.558Z,99364.55
2022-11-23T20:45:01.390Z,99364.88
2022-11-23T20:47:31.322Z,99356.75
2022-11-23T20:50:01.164Z,99359.62
2022-11-23T20:52:30.994Z,99364.81
2022-11-23T20:55:01.156Z,99366.23
2022-11-23T20:57:31.851Z,99371.42
2022-11-23T21:00:01.658Z,99371.42
2022-11-23T21:02:31.528Z,99366.81
2022-11-23T21:05:01.554Z,99369.34
2022-11-23T21:07:31.799Z,99370.52
2022-11-23T21:10:01.617Z,99369.61
2022-11-23T21:12:50.692Z,99374.69
2022-11-23T21:15:20.707Z,99370.66
2022-11-23T21:17:52.032Z,99372.97
2022-11-23T21:20:22.814Z,99380.14
2022-11-23T21:22:53.301Z,99377.02
2022-11-23T21:25:23.144Z,99371.09
2022-11-23T21:27:53.249Z,99373.36
2022-11-23T21:30:22.956Z,99369.08
2022-11-23T21:32:53.702Z,99372.31
2022-11-23T21:35:23.640Z,99373.22
2022-11-23T21:37:53.501Z,99371.80
2022-11-23T21:40:27.380Z,99374.52
2022-11-23T21:42:58.473Z,99373.16
2022-11-23T21:45:28.302Z,99373.16
2022-11-23T21:47:58.466Z,99384.78
2022-11-23T21:50:29.273Z,99389.14
2022-11-23T21:52:59.099Z,99390.31
2022-11-23T21:55:29.987Z,99397.26
2022-11-23T21:57:59.817Z,99392.91
2022-11-23T22:00:31.497Z,99392.91
2022-11-23T22:03:01.711Z,99397.26
2022-11-23T22:05:31.603Z,99394.93
2022-11-23T22:10:34.409Z,99404.02
2022-11-23T22:13:04.605Z,99400.97
2022-11-23T22:15:34.518Z,99405.05
2022-11-23T22:18:04.443Z,99410.56
2022-11-23T22:20:37.674Z,99410.56
2022-11-23T22:23:07.613Z,99416.61
2022-11-23T22:25:37.669Z,99414.19
2022-11-23T22:28:07.342Z,99415.25
2022-11-23T22:30:37.310Z,99420.63
2022-11-23T22:33:07.227Z,99416.69
2022-11-23T22:35:37.163Z,99416.36
2022-11-23T22:38:07.085Z,99416.42
2022-11-23T22:40:38.686Z,99424.14
2022-11-23T22:43:08.293Z,99429.05
2022-11-23T22:45:38.692Z,99432.26
2022-11-23T22:48:08.498Z,99424.15
2022-11-23T22:50:38.638Z,99424.15
2022-11-23T22:53:08.632Z,99424.27
2022-11-23T22:55:39.002Z,99429.12
2022-11-23T22:58:08.688Z,99430.22
2022-11-23T23:00:38.665Z,99434.84
2022-11-23T23:03:08.629Z,99433.64
2022-11-23T23:05:38.928Z,99426.05
2022-11-23T23:08:08.867Z,99434.23
2022-11-23T23:10:39.898Z,99430.94
2022-11-23T23:13:09.809Z,99430.94
2022-11-23T23:15:40.038Z,99437.92
2022-11-23T23:18:09.711Z,99440.06
2022-11-23T23:20:40.266Z,99434.73
2022-11-23T23:23:10.113Z,99437.72
2022-11-23T23:25:39.959Z,99439.22
2022-11-23T23:28:09.718Z,99432.09
2022-11-23T23:30:39.620Z,99433.33
2022-11-23T23:33:09.210Z,99443.45
2022-11-23T23:35:39.633Z,99444.80
2022-11-23T23:38:09.226Z,99448.94
2022-11-23T23:40:39.441Z,99447.42
2022-11-23T23:43:09.084Z,99445.51
2022-11-23T23:45:38.999Z,99448.33
2022-11-23T23:48:08.952Z,99456.45
2022-11-23T23:50:38.889Z,99458.89
2022-11-23T23:53:08.807Z,99449.98
2022-11-23T23:55:39.006Z,99449.75
2022-11-23T23:58:08.949Z,99453.02
